createdAt,value
2022-10-13T00:00:03.465Z,31.4
2022-10-13T00:01:05.193Z,31.4
2022-10-13T00:02:07.437Z,31.4
2022-10-13T00:03:09.196Z,31.4
2022-10-13T00:04:11.021Z,31.3
2022-10-13T00:05:12.776Z,31.3
2022-10-13T00:06:14.426Z,31.4
2022-10-13T00:07:16.127Z,31.4
2022-10-13T00:08:17.687Z,31.3
2022-10-13T00:09:19.451Z,31.3
2022-10-13T00:10:21.064Z,31.3
2022-10-13T00:11:22.667Z,31.3
2022-10-13T00:12:24.563Z,31.2
2022-10-13T00:13:26.401Z,31.2
2022-10-13T00:14:28.189Z,31.2
2022-10-13T00:15:29.819Z,31.2
2022-10-13T00:16:31.584Z,31.2
2022-10-13T00:17:33.271Z,31.3
2022-10-13T00:18:34.842Z,31.3
2022-10-13T00:19:36.484Z,31.3
2022-10-13T00:20:38.210Z,31.4
2022-10-13T00:21:40.014Z,31.3
2022-10-13T00:22:41.706Z,31.3
2022-10-13T00:23:43.378Z,31.3
2022-10-13T00:24:45.043Z,31.3
2022-10-13T00:25:46.718Z,31.3
2022-10-13T00:26:48.469Z,31.2
2022-10-13T00:27:50.234Z,31.3
2022-10-13T00:28:53.397Z,31.3
2022-10-13T00:29:55.573Z,31.3
2022-10-13T00:30:57.142Z,31.3
2022-10-13T00:31:58.702Z,31.3
2022-10-13T00:33:00.266Z,31.2
2022-10-13T00:34:02.012Z,31.2
2022-10-13T00:35:03.826Z,31.2
2022-10-13T00:36:05.447Z,31.3
2022-10-13T00:37:07.220Z,31.2
2022-10-13T00:38:09.000Z,31.2
2022-10-13T00:39:10.855Z,31.2
2022-10-13T00:40:12.567Z,31.2
2022-10-13T00:41:14.269Z,31.1
2022-10-13T00:42:16.742Z,31.1
2022-10-13T00:43:19.757Z,31.1
2022-10-13T00:44:21.705Z,31.1
2022-10-13T00:45:23.387Z,31.1
2022-10-13T00:46:25.029Z,31.2
2022-10-13T00:47:26.675Z,31.2
2022-10-13T00:48:28.231Z,31.2
2022-10-13T00:49:29.819Z,31.1
2022-10-13T00:50:31.380Z,31.1
2022-10-13T00:51:33.266Z,31.2
2022-10-13T00:52:34.971Z,31.1
2022-10-13T00:53:36.723Z,31.1
2022-10-13T00:54:38.499Z,31
2022-10-13T00:55:40.245Z,31.1
2022-10-13T00:56:41.861Z,31.1
2022-10-13T00:57:43.722Z,31.1
2022-10-13T00:58:45.555Z,31.1
2022-10-13T00:59:47.238Z,31.1
2022-10-13T01:00:49.100Z,31.1
2022-10-13T01:01:50.978Z,31.1
2022-10-13T01:02:52.685Z,31.1
2022-10-13T01:03:54.260Z,31.1
2022-10-13T01:04:55.851Z,31.1
2022-10-13T01:05:57.519Z,31
2022-10-13T01:06:59.126Z,31.1
2022-10-13T01:08:00.772Z,31.1
2022-10-13T01:09:02.333Z,31.1
2022-10-13T01:10:04.115Z,31.1
2022-10-13T01:11:05.948Z,31
2022-10-13T01:12:07.492Z,31
2022-10-13T01:13:09.162Z,31.1
2022-10-13T01:14:10.926Z,31
2022-10-13T01:15:12.492Z,31
2022-10-13T01:16:14.176Z,31
2022-10-13T01:17:15.888Z,31.1
2022-10-13T01:18:17.457Z,31.1
2022-10-13T01:19:19.111Z,31
2022-10-13T01:20:20.829Z,31
2022-10-13T01:21:22.710Z,30.9
2022-10-13T01:22:24.462Z,30.9
2022-10-13T01:23:26.067Z,30.9
2022-10-13T01:24:27.849Z,30.9
2022-10-13T01:25:29.495Z,30.9
2022-10-13T01:26:31.113Z,31
2022-10-13T01:27:32.891Z,31
2022-10-13T01:28:34.705Z,31
2022-10-13T01:29:36.728Z,31
2022-10-13T01:30:38.442Z,30.9
2022-10-13T01:31:40.083Z,30.9
2022-10-13T01:32:41.796Z,30.9
2022-10-13T01:33:43.491Z,30.9
2022-10-13T01:34:45.293Z,30.9
2022-10-13T01:35:47.071Z,30.9
2022-10-13T01:36:48.780Z,30.9
2022-10-13T01:37:50.326Z,30.9
2022-10-13T01:38:52.008Z,31
2022-10-13T01:39:53.658Z,31
2022-10-13T01:40:55.402Z,30.9
2022-10-13T01:42:00.025Z,30.9
2022-10-13T01:43:01.867Z,30.9
2022-10-13T01:44:03.637Z,30.9
2022-10-13T01:45:05.531Z,30.9
2022-10-13T01:46:07.302Z,30.9
2022-10-13T01:47:09.039Z,30.9
2022-10-13T01:48:10.669Z,30.9
2022-10-13T01:49:12.453Z,30.9
2022-10-13T01:50:14.194Z,30.9
2022-10-13T01:51:15.812Z,30.9
2022-10-13T01:52:18.342Z,31
2022-10-13T01:53:21.128Z,31
2022-10-13T01:54:23.033Z,30.9
2022-10-13T01:55:24.596Z,31
2022-10-13T01:56:26.348Z,31
2022-10-13T01:57:27.934Z,30.9
2022-10-13T01:58:29.492Z,31
2022-10-13T01:59:31.285Z,30.9
2022-10-13T02:00:33.338Z,30.9
2022-10-13T02:01:35.368Z,30.9
2022-10-13T02:02:37.020Z,30.9
2022-10-13T02:03:38.634Z,30.9
2022-10-13T02:04:40.416Z,30.9
2022-10-13T02:05:42.134Z,30.9
2022-10-13T02:06:43.802Z,31
2022-10-13T02:07:45.413Z,30.9
2022-10-13T02:08:47.061Z,31
2022-10-13T02:09:48.844Z,30.9
2022-10-13T02:10:50.484Z,30.9
2022-10-13T02:11:52.107Z,30.9
2022-10-13T02:12:53.743Z,30.9
2022-10-13T02:13:55.296Z,30.9
2022-10-13T02:14:56.991Z,30.9
2022-10-13T02:15:58.913Z,31
2022-10-13T02:17:00.481Z,30.9
2022-10-13T02:18:02.105Z,30.9
2022-10-13T02:19:03.652Z,30.9
2022-10-13T02:20:05.295Z,30.9
2022-10-13T02:21:06.937Z,30.9
2022-10-13T02:22:08.500Z,30.9
2022-10-13T02:23:10.170Z,30.9
2022-10-13T02:24:11.748Z,30.9
2022-10-13T02:25:13.517Z,30.9
2022-10-13T02:26:15.064Z,30.9
2022-10-13T02:27:16.620Z,30.8
2022-10-13T02:28:18.331Z,30.9
2022-10-13T02:29:20.659Z,30.9
2022-10-13T02:30:22.389Z,30.8
2022-10-13T02:31:24.210Z,30.8
2022-10-13T02:32:25.818Z,30.8
2022-10-13T02:33:27.463Z,30.8
2022-10-13T02:34:29.145Z,30.8
2022-10-13T02:35:30.790Z,30.9
2022-10-13T02:36:32.662Z,30.8
2022-10-13T02:37:34.332Z,30.8
2022-10-13T02:38:35.899Z,30.8
2022-10-13T02:39:37.509Z,30.8
2022-10-13T02:40:39.175Z,30.8
2022-10-13T02:41:40.972Z,30.7
2022-10-13T02:42:42.816Z,30.7
2022-10-13T02:43:44.472Z,30.8
2022-10-13T02:44:46.091Z,30.8
2022-10-13T02:45:47.885Z,30.8
2022-10-13T02:46:49.645Z,30.8
2022-10-13T02:47:51.557Z,30.8
2022-10-13T02:48:53.217Z,30.3
2022-10-13T02:49:54.817Z,29.9
2022-10-13T02:50:56.379Z,30
2022-10-13T02:51:57.963Z,30.7
2022-10-13T02:52:59.584Z,30.7
2022-10-13T02:54:01.192Z,30.7
2022-10-13T02:55:02.755Z,30.7
2022-10-13T02:56:04.412Z,30.8
2022-10-13T02:57:06.165Z,30.8
2022-10-13T02:58:07.727Z,30.9
2022-10-13T02:59:09.314Z,30.9
2022-10-13T03:00:10.855Z,30.9
2022-10-13T03:01:12.723Z,30.9
2022-10-13T03:02:15.001Z,30.9
2022-10-13T03:03:16.610Z,31
2022-10-13T03:04:18.360Z,30.9
2022-10-13T03:05:19.918Z,30.9
2022-10-13T03:06:21.585Z,30.9
2022-10-13T03:07:23.236Z,30.9
2022-10-13T03:08:24.815Z,31
2022-10-13T03:09:26.379Z,31
2022-10-13T03:10:28.130Z,30.9
2022-10-13T03:11:30.117Z,30.9
2022-10-13T03:12:31.719Z,30.9
2022-10-13T03:13:33.375Z,30.9
2022-10-13T03:14:35.153Z,31
2022-10-13T03:15:36.758Z,31
2022-10-13T03:16:38.689Z,31
2022-10-13T03:17:40.599Z,30.9
2022-10-13T03:18:42.319Z,30.9
2022-10-13T03:19:43.978Z,30.9
2022-10-13T03:20:45.607Z,30.9
2022-10-13T03:21:47.285Z,30.9
2022-10-13T03:22:50.359Z,30.8
2022-10-13T03:23:52.011Z,30.8
2022-10-13T03:24:53.729Z,30.8
2022-10-13T03:25:55.613Z,30.6
2022-10-13T03:26:57.250Z,30.7
2022-10-13T03:27:58.898Z,30.7
2022-10-13T03:29:00.629Z,30.6
2022-10-13T03:30:02.290Z,30.5
2022-10-13T03:31:04.041Z,30.5
2022-10-13T03:32:05.714Z,30.5
2022-10-13T03:33:07.546Z,30.6
2022-10-13T03:34:09.383Z,30.3
2022-10-13T03:35:11.098Z,30.5
2022-10-13T03:36:12.917Z,30.5
2022-10-13T03:37:14.487Z,30.5
2022-10-13T03:38:16.033Z,30.5
2022-10-13T03:39:17.711Z,30.5
2022-10-13T03:40:19.526Z,30.4
2022-10-13T03:41:21.217Z,30.4
2022-10-13T03:42:23.158Z,30.4
2022-10-13T03:43:24.907Z,30.4
2022-10-13T03:44:29.443Z,30.3
2022-10-13T03:45:31.033Z,30.4
2022-10-13T03:46:32.912Z,30.4
2022-10-13T03:47:34.688Z,30.4
2022-10-13T03:48:36.471Z,30.4
2022-10-13T03:49:38.166Z,30.3
2022-10-13T03:50:39.782Z,30.3
2022-10-13T03:51:41.449Z,30.3
2022-10-13T03:52:42.990Z,30.3
2022-10-13T03:53:44.532Z,30.3
2022-10-13T03:54:46.156Z,30.2
2022-10-13T03:55:47.827Z,30.2
2022-10-13T03:56:49.409Z,30.2
2022-10-13T03:57:50.967Z,30.2
2022-10-13T03:58:52.521Z,30
2022-10-13T03:59:54.202Z,30.2
2022-10-13T04:00:55.809Z,30.2
2022-10-13T04:01:57.513Z,30.2
2022-10-13T04:02:59.570Z,30.2
2022-10-13T04:04:01.251Z,30.2
2022-10-13T04:05:03.042Z,30.2
2022-10-13T04:06:04.768Z,30.2
2022-10-13T04:07:06.602Z,30.2
2022-10-13T04:08:08.356Z,30.2
2022-10-13T04:09:10.051Z,30.2
2022-10-13T04:10:11.883Z,30.2
2022-10-13T04:11:13.490Z,30.4
2022-10-13T04:12:21.192Z,30.3
2022-10-13T04:13:23.169Z,30.3
2022-10-13T04:14:24.731Z,30.3
2022-10-13T04:15:26.321Z,30.3
2022-10-13T04:16:27.892Z,30.3
2022-10-13T04:17:29.648Z,30.2
2022-10-13T04:18:31.418Z,30.3
2022-10-13T04:19:33.210Z,30.4
2022-10-13T04:20:34.892Z,30.4
2022-10-13T04:21:36.534Z,30.4
2022-10-13T04:22:38.196Z,30.4
2022-10-13T04:23:40.029Z,30.4
2022-10-13T04:24:41.640Z,30.4
2022-10-13T04:25:43.424Z,30.4
2022-10-13T04:26:45.034Z,30.4
2022-10-13T04:27:46.818Z,30.4
2022-10-13T04:28:48.831Z,30.4
2022-10-13T04:29:50.925Z,30.5
2022-10-13T04:30:52.467Z,30.4
2022-10-13T04:31:54.078Z,30.4
2022-10-13T04:32:55.961Z,30.4
2022-10-13T04:33:57.641Z,30.4
2022-10-13T04:34:59.526Z,30.3
2022-10-13T04:36:01.084Z,30.5
2022-10-13T04:37:02.751Z,30.5
2022-10-13T04:38:04.496Z,30.5
2022-10-13T04:39:06.143Z,30.5
2022-10-13T04:40:07.831Z,30.5
2022-10-13T04:41:09.398Z,30.4
2022-10-13T04:42:10.967Z,30.4
2022-10-13T04:43:12.729Z,30.4
2022-10-13T04:44:14.470Z,30.3
2022-10-13T04:45:16.133Z,30.4
2022-10-13T04:46:17.835Z,30.4
2022-10-13T04:47:19.577Z,30.3
2022-10-13T04:48:21.255Z,30.3
2022-10-13T04:49:23.027Z,30.3
2022-10-13T04:50:24.953Z,30.3
2022-10-13T04:51:26.510Z,30.2
2022-10-13T04:52:28.057Z,30.2
2022-10-13T04:53:29.625Z,30.2
2022-10-13T04:54:33.727Z,30.2
2022-10-13T04:55:35.536Z,30.1
2022-10-13T04:56:37.183Z,30.1
2022-10-13T04:57:38.782Z,30
2022-10-13T04:58:40.517Z,30
2022-10-13T04:59:42.074Z,29.9
2022-10-13T05:00:43.985Z,29.8
2022-10-13T05:01:45.922Z,29.9
2022-10-13T05:02:47.461Z,29.9
2022-10-13T05:03:49.022Z,29.8
2022-10-13T05:04:50.779Z,29.8
2022-10-13T05:05:52.706Z,29.8
2022-10-13T05:07:18.412Z,29.8
2022-10-13T05:08:20.547Z,29.9
2022-10-13T05:09:22.233Z,29.8
2022-10-13T05:10:24.084Z,29.8
2022-10-13T05:11:26.018Z,29.8
2022-10-13T05:12:27.671Z,29.7
2022-10-13T05:13:29.234Z,29.7
2022-10-13T05:14:31.073Z,29.7
2022-10-13T05:15:32.692Z,29.7
2022-10-13T05:16:34.419Z,29.7
2022-10-13T05:17:36.128Z,29.7
2022-10-13T05:18:37.951Z,29.7
2022-10-13T05:19:39.498Z,29.7
2022-10-13T05:20:41.165Z,29.7
2022-10-13T05:21:42.937Z,29.7
2022-10-13T05:22:44.598Z,29.7
2022-10-13T05:23:46.274Z,29.8
2022-10-13T05:24:47.884Z,29.8
2022-10-13T05:25:49.532Z,29.7
2022-10-13T05:26:51.093Z,29.8
2022-10-13T05:27:52.761Z,29.8
2022-10-13T05:28:54.598Z,29.8
2022-10-13T05:29:56.537Z,29.7
2022-10-13T05:30:58.172Z,29.7
2022-10-13T05:32:00.052Z,29.7
2022-10-13T05:33:01.606Z,29.6
2022-10-13T05:34:03.160Z,29.6
2022-10-13T05:35:04.884Z,29.7
2022-10-13T05:36:06.550Z,29.7
2022-10-13T05:37:08.426Z,29.8
2022-10-13T05:38:10.129Z,29.8
2022-10-13T05:39:11.876Z,29.8
2022-10-13T05:40:13.597Z,29.8
2022-10-13T05:41:15.338Z,29.7
2022-10-13T05:42:17.660Z,29.7
2022-10-13T05:43:20.941Z,29.7
2022-10-13T05:44:22.727Z,29.8
2022-10-13T05:45:24.406Z,29.8
2022-10-13T05:46:26.024Z,29.8
2022-10-13T05:47:27.697Z,29.9
2022-10-13T05:48:29.312Z,30.1
2022-10-13T05:49:31.033Z,30.1
2022-10-13T05:50:32.840Z,30.1
2022-10-13T05:51:34.443Z,30
2022-10-13T05:52:36.231Z,29.9
2022-10-13T05:53:37.795Z,29.9
2022-10-13T05:54:39.438Z,29.9
2022-10-13T05:55:41.063Z,29.9
2022-10-13T05:56:42.615Z,29.9
2022-10-13T05:57:44.221Z,29.9
2022-10-13T05:58:45.779Z,29.9
2022-10-13T05:59:47.441Z,29.9
2022-10-13T06:00:49.064Z,29.9
2022-10-13T06:01:50.746Z,30
2022-10-13T06:02:52.599Z,30
2022-10-13T06:03:54.227Z,30
2022-10-13T06:04:55.976Z,29.9
2022-10-13T06:05:57.523Z,29.9
2022-10-13T06:06:59.230Z,30
2022-10-13T06:08:01.013Z,30.1
2022-10-13T06:09:02.739Z,30
2022-10-13T06:10:04.614Z,30.1
2022-10-13T06:11:06.462Z,30.1
2022-10-13T06:12:08.009Z,30.1
2022-10-13T06:13:09.750Z,30.2
2022-10-13T06:14:11.471Z,30.2
2022-10-13T06:15:13.245Z,30.3
2022-10-13T06:16:15.197Z,30.2
2022-10-13T06:17:16.766Z,30.1
2022-10-13T06:18:18.357Z,30
2022-10-13T06:19:20.138Z,30
2022-10-13T06:20:21.758Z,30
2022-10-13T06:21:23.495Z,29.9
2022-10-13T06:22:25.301Z,29.9
2022-10-13T06:23:27.227Z,29.9
2022-10-13T06:24:28.943Z,29.9
2022-10-13T06:25:30.618Z,29.9
2022-10-13T06:26:32.368Z,29.9
2022-10-13T06:27:33.925Z,29.9
2022-10-13T06:28:36.112Z,29.9
2022-10-13T06:29:38.020Z,29.9
2022-10-13T06:30:39.679Z,29.8
2022-10-13T06:31:41.230Z,29.7
2022-10-13T06:32:42.780Z,29.8
2022-10-13T06:33:44.607Z,29.7
2022-10-13T06:34:46.150Z,29.6
2022-10-13T06:35:47.760Z,29.6
2022-10-13T06:36:49.538Z,29.6
2022-10-13T06:37:51.209Z,29.8
2022-10-13T06:38:53.005Z,29.8
2022-10-13T06:39:54.755Z,29.8
2022-10-13T06:40:56.423Z,29.8
2022-10-13T06:41:58.173Z,29.7
2022-10-13T06:42:59.815Z,29.6
2022-10-13T06:44:01.433Z,29.5
2022-10-13T06:45:02.992Z,29.7
2022-10-13T06:46:04.729Z,29.7
2022-10-13T06:47:06.603Z,29.7
2022-10-13T06:48:08.453Z,29.7
2022-10-13T06:49:10.013Z,29.5
2022-10-13T06:50:11.811Z,29.5
2022-10-13T06:51:13.486Z,29.4
2022-10-13T06:52:15.247Z,29.4
2022-10-13T06:53:16.911Z,29.4
2022-10-13T06:54:18.822Z,29.4
2022-10-13T06:55:20.481Z,29.5
2022-10-13T06:56:22.087Z,29.5
2022-10-13T06:57:23.771Z,29.6
2022-10-13T06:58:25.341Z,29.7
2022-10-13T06:59:26.926Z,29.7
2022-10-13T07:00:28.848Z,29.7
2022-10-13T07:01:30.910Z,29.8
2022-10-13T07:02:32.466Z,29.7
2022-10-13T07:03:34.122Z,29.7
2022-10-13T07:04:36.108Z,29.7
2022-10-13T07:05:37.758Z,29.8
2022-10-13T07:06:39.501Z,30
2022-10-13T07:07:41.151Z,29.9
2022-10-13T07:08:42.821Z,29.8
2022-10-13T07:09:44.645Z,29.7
2022-10-13T07:10:46.490Z,29.7
2022-10-13T07:11:48.067Z,29.6
2022-10-13T07:12:49.620Z,29.6
2022-10-13T07:13:51.487Z,29.6
2022-10-13T07:14:53.493Z,29.6
2022-10-13T07:15:55.243Z,29.6
2022-10-13T07:16:59.698Z,29.6
2022-10-13T07:18:01.263Z,29.6
2022-10-13T07:19:02.814Z,29.5
2022-10-13T07:20:07.678Z,29.6
2022-10-13T07:21:09.465Z,29.9
2022-10-13T07:22:11.220Z,29.9
2022-10-13T07:23:12.961Z,29.8
2022-10-13T07:24:14.966Z,29.8
2022-10-13T07:25:16.749Z,29.8
2022-10-13T07:26:18.516Z,29.8
2022-10-13T07:27:21.103Z,29.8
2022-10-13T07:28:23.834Z,29.8
2022-10-13T07:29:25.833Z,29.6
2022-10-13T07:30:27.477Z,29.6
2022-10-13T07:31:29.229Z,29.6
2022-10-13T07:32:30.993Z,29.7
2022-10-13T07:33:32.709Z,29.7
2022-10-13T07:34:34.366Z,29.8
2022-10-13T07:35:35.976Z,29.9
2022-10-13T07:36:37.765Z,29.9
2022-10-13T07:37:39.456Z,29.9
2022-10-13T07:38:41.258Z,29.9
2022-10-13T07:39:42.929Z,29.8
2022-10-13T07:40:44.717Z,29.9
2022-10-13T07:41:51.433Z,29.8
2022-10-13T07:42:53.036Z,29.8
2022-10-13T07:43:54.704Z,29.8
2022-10-13T07:44:56.419Z,29.7
2022-10-13T07:45:57.995Z,29.7
2022-10-13T07:46:59.578Z,29.7
2022-10-13T07:48:01.159Z,29.8
2022-10-13T07:49:02.863Z,29.8
2022-10-13T07:50:04.475Z,29.7
2022-10-13T07:51:06.121Z,29.7
2022-10-13T07:52:07.872Z,29.7
2022-10-13T07:53:09.417Z,29.8
2022-10-13T07:54:10.967Z,29.8
2022-10-13T07:55:12.808Z,29.8
2022-10-13T07:56:14.717Z,29.8
2022-10-13T07:57:16.403Z,29.8
2022-10-13T07:58:18.147Z,29.8
2022-10-13T07:59:19.859Z,29.7
2022-10-13T08:00:21.638Z,29.9
2022-10-13T08:01:23.327Z,29.8
2022-10-13T08:02:25.235Z,29.8
2022-10-13T08:03:27.018Z,29.7
2022-10-13T08:04:28.905Z,29.7
2022-10-13T08:05:30.461Z,29.6
2022-10-13T08:06:32.253Z,29.7
2022-10-13T08:07:34.102Z,29.8
2022-10-13T08:08:35.654Z,29.8
2022-10-13T08:09:37.353Z,29.8
2022-10-13T08:10:39.279Z,29.8
2022-10-13T08:11:41.177Z,29.8
2022-10-13T08:12:42.734Z,29.8
2022-10-13T08:13:44.290Z,29.8
2022-10-13T08:14:46.200Z,29.7
2022-10-13T08:15:48.227Z,29.7
2022-10-13T08:16:53.908Z,29.6
2022-10-13T08:17:55.540Z,29.6
2022-10-13T08:18:57.305Z,29.5
2022-10-13T08:19:58.868Z,29.7
2022-10-13T08:21:53.099Z,30.1
2022-10-13T08:23:01.728Z,29.6
2022-10-13T08:24:03.438Z,29.5
2022-10-13T08:25:05.126Z,29.5
2022-10-13T08:26:06.888Z,29.5
2022-10-13T08:27:08.755Z,29.5
2022-10-13T08:28:10.366Z,29.6
2022-10-13T08:29:27.534Z,29.5
2022-10-13T08:30:30.093Z,29.6
2022-10-13T08:31:32.646Z,29.6
2022-10-13T08:32:35.039Z,29.7
2022-10-13T08:33:36.785Z,29.7
2022-10-13T08:34:38.463Z,29.7
2022-10-13T08:35:40.216Z,29.7
2022-10-13T08:36:41.929Z,29.7
2022-10-13T08:37:43.589Z,29.7
2022-10-13T08:38:45.255Z,29.6
2022-10-13T08:39:46.896Z,29.7
2022-10-13T08:40:48.543Z,29.7
2022-10-13T08:41:50.208Z,29.8
2022-10-13T08:42:59.464Z,29.8
2022-10-13T08:45:15.982Z,29.7
2022-10-13T08:46:43.871Z,29.5
2022-10-13T08:47:45.582Z,29.6
2022-10-13T08:48:47.138Z,29.6
2022-10-13T08:49:48.687Z,29.5
2022-10-13T08:50:50.348Z,29.7
2022-10-13T08:51:52.035Z,29.7
2022-10-13T08:52:53.637Z,29.7
2022-10-13T08:53:55.269Z,29.7
2022-10-13T08:54:56.930Z,29.8
2022-10-13T08:55:58.536Z,29.9
2022-10-13T08:58:03.301Z,29.7
2022-10-13T08:59:05.299Z,29.6
2022-10-13T09:00:06.999Z,29.6
2022-10-13T09:01:08.591Z,29.5
2022-10-13T09:02:10.535Z,29.4
2022-10-13T09:03:15.353Z,29.3
2022-10-13T09:04:17.003Z,29.4
2022-10-13T09:05:18.809Z,29.4
2022-10-13T09:06:20.420Z,29.4
2022-10-13T09:07:22.975Z,29.3
2022-10-13T09:08:24.981Z,29.3
2022-10-13T09:09:26.617Z,29.4
2022-10-13T09:10:28.369Z,29.3
2022-10-13T09:11:30.286Z,29.3
2022-10-13T09:12:32.145Z,29.2
2022-10-13T09:13:34.064Z,29.4
2022-10-13T09:14:35.743Z,29.5
2022-10-13T09:15:37.411Z,29.5
2022-10-13T09:16:39.225Z,29.6
2022-10-13T09:17:40.836Z,29.6
2022-10-13T09:18:42.550Z,29.6
2022-10-13T09:19:44.479Z,29.6
2022-10-13T09:20:46.095Z,29.7
2022-10-13T09:21:47.897Z,29.8
2022-10-13T09:22:49.620Z,29.9
2022-10-13T09:23:51.270Z,29.9
2022-10-13T09:24:52.893Z,29.8
2022-10-13T09:25:54.491Z,29.8
2022-10-13T09:26:56.043Z,29.7
2022-10-13T09:27:57.805Z,29.8
2022-10-13T09:28:59.770Z,29.9
2022-10-13T09:30:04.462Z,29.8
2022-10-13T09:31:13.878Z,29.7
2022-10-13T09:32:15.920Z,29.7
2022-10-13T09:33:17.529Z,29.6
2022-10-13T09:34:19.144Z,29.6
2022-10-13T09:35:20.722Z,29.4
2022-10-13T09:36:22.502Z,29.4
2022-10-13T09:37:24.412Z,29.4
2022-10-13T09:38:26.172Z,29.3
2022-10-13T09:39:27.908Z,29.2
2022-10-13T09:40:29.836Z,29.2
2022-10-13T09:41:31.645Z,29.1
2022-10-13T09:42:33.702Z,29.1
2022-10-13T09:43:35.370Z,29.1
2022-10-13T09:44:37.195Z,29.1
2022-10-13T09:45:38.844Z,29.1
2022-10-13T09:46:40.561Z,29.1
2022-10-13T09:47:42.286Z,29.1
2022-10-13T09:48:43.864Z,29.1
2022-10-13T09:49:45.637Z,29.1
2022-10-13T09:50:47.241Z,29
2022-10-13T09:51:48.852Z,29
2022-10-13T09:52:50.570Z,29.1
2022-10-13T09:53:52.132Z,29.1
2022-10-13T09:54:53.699Z,29.1
2022-10-13T09:55:55.609Z,29.1
2022-10-13T09:56:57.359Z,29.1
2022-10-13T09:57:58.960Z,28.9
2022-10-13T09:59:00.775Z,28.9
2022-10-13T10:01:04.142Z,28.9
2022-10-13T10:02:05.965Z,28.9
2022-10-13T10:03:07.635Z,28.9
2022-10-13T10:04:09.481Z,28.9
2022-10-13T10:05:11.337Z,28.9
2022-10-13T10:06:13.065Z,28.9
2022-10-13T10:07:14.878Z,28.9
2022-10-13T10:08:16.617Z,29
2022-10-13T10:09:18.326Z,29
2022-10-13T10:10:19.910Z,29.2
2022-10-13T10:11:21.618Z,29.2
2022-10-13T10:12:28.102Z,29.1
2022-10-13T10:13:29.823Z,29.1
2022-10-13T10:14:31.605Z,29
2022-10-13T10:15:33.554Z,29
2022-10-13T10:16:35.129Z,29.1
2022-10-13T10:17:36.814Z,29.1
2022-10-13T10:18:38.424Z,29
2022-10-13T10:19:40.209Z,29.1
2022-10-13T10:20:41.807Z,29.1
2022-10-13T10:21:43.549Z,29.1
2022-10-13T10:22:45.288Z,29.1
2022-10-13T10:23:47.062Z,29.1
2022-10-13T10:24:48.808Z,29.1
2022-10-13T10:25:50.565Z,29.1
2022-10-13T10:26:52.235Z,29.1
2022-10-13T10:27:53.841Z,29.1
2022-10-13T10:28:55.775Z,29.2
2022-10-13T10:29:58.013Z,29.2
2022-10-13T10:30:59.838Z,29.1
2022-10-13T10:32:01.484Z,29.2
2022-10-13T10:33:03.137Z,29.2
2022-10-13T10:34:04.815Z,29.1
2022-10-13T10:35:06.486Z,29.2
2022-10-13T10:36:08.230Z,29.2
2022-10-13T10:37:09.942Z,29.2
2022-10-13T10:38:11.693Z,29.2
2022-10-13T10:39:13.252Z,29.3
2022-10-13T10:40:14.925Z,29.3
2022-10-13T10:41:16.514Z,29.3
2022-10-13T10:42:18.905Z,29.3
2022-10-13T10:43:21.636Z,29.2
2022-10-13T10:44:23.322Z,29.2
2022-10-13T10:45:25.187Z,29.1
2022-10-13T10:46:27.075Z,29.1
2022-10-13T10:47:29.747Z,29.2
2022-10-13T10:48:32.518Z,29.1
2022-10-13T10:49:34.078Z,29.2
2022-10-13T10:50:35.934Z,29.2
2022-10-13T10:51:37.653Z,29.1
2022-10-13T10:52:39.383Z,29.1
2022-10-13T10:53:41.016Z,29.1
2022-10-13T10:54:49.579Z,29.1
2022-10-13T10:55:51.404Z,29.2
2022-10-13T10:56:53.057Z,29.3
2022-10-13T10:57:54.650Z,29.3
2022-10-13T10:58:56.217Z,29.3
2022-10-13T10:59:57.886Z,29.2
2022-10-13T11:00:59.804Z,29.3
2022-10-13T11:02:01.830Z,29.3
2022-10-13T11:03:03.410Z,29.3
2022-10-13T11:04:05.046Z,29.3
2022-10-13T11:05:06.931Z,29.3
2022-10-13T11:06:08.679Z,29.3
2022-10-13T11:07:10.344Z,29.2
2022-10-13T11:08:11.994Z,29.2
2022-10-13T11:09:13.611Z,29.3
2022-10-13T11:10:15.173Z,29.3
2022-10-13T11:11:16.725Z,29.2
2022-10-13T11:12:18.949Z,29.3
2022-10-13T11:13:21.860Z,29.3
2022-10-13T11:14:23.521Z,29.3
2022-10-13T11:15:25.269Z,29.3
2022-10-13T11:16:26.892Z,29.3
2022-10-13T11:17:28.684Z,29.1
2022-10-13T11:18:30.368Z,29.3
2022-10-13T11:19:31.966Z,29.2
2022-10-13T11:20:33.722Z,29.2
2022-10-13T11:21:35.472Z,29.2
2022-10-13T11:22:37.164Z,29.2
2022-10-13T11:23:38.896Z,29.2
2022-10-13T11:24:40.510Z,29.2
2022-10-13T11:25:42.067Z,29.3
2022-10-13T11:26:43.697Z,29.2
2022-10-13T11:27:45.583Z,29
2022-10-13T11:28:47.585Z,29.4
2022-10-13T11:29:49.529Z,29.3
2022-10-13T11:30:51.161Z,29.3
2022-10-13T11:31:52.809Z,29.2
2022-10-13T11:32:54.601Z,29.1
2022-10-13T11:33:56.214Z,29.2
2022-10-13T11:34:57.906Z,29.2
2022-10-13T11:35:59.566Z,29.2
2022-10-13T11:37:01.294Z,29.2
2022-10-13T11:38:09.940Z,29.2
2022-10-13T11:39:19.917Z,29.1
2022-10-13T11:40:21.821Z,29.1
2022-10-13T11:41:23.423Z,29.1
2022-10-13T11:42:25.165Z,29.1
2022-10-13T11:43:26.817Z,29.1
2022-10-13T11:45:30.245Z,29.1
2022-10-13T11:46:31.953Z,29.1
2022-10-13T11:47:33.726Z,29
2022-10-13T11:48:35.554Z,29.1
2022-10-13T11:49:37.338Z,29
2022-10-13T11:50:38.935Z,29.1
2022-10-13T11:51:41.037Z,29.1
2022-10-13T11:52:42.786Z,29.2
2022-10-13T11:53:44.433Z,29.2
2022-10-13T11:54:46.098Z,29.1
2022-10-13T11:55:47.653Z,29.3
2022-10-13T11:56:49.447Z,29.2
2022-10-13T11:57:51.422Z,29
2022-10-13T11:58:53.032Z,29
2022-10-13T11:59:54.949Z,29.1
2022-10-13T12:00:56.733Z,29.2
2022-10-13T12:01:58.621Z,29.1
2022-10-13T12:03:00.528Z,29.1
2022-10-13T12:04:02.618Z,29.1
2022-10-13T12:05:04.342Z,29.2
2022-10-13T12:06:05.979Z,29.2
2022-10-13T12:07:07.662Z,29.1
2022-10-13T12:08:09.511Z,29.2
2022-10-13T12:09:11.096Z,29.2
2022-10-13T12:10:12.899Z,29.1
2022-10-13T12:11:14.604Z,29.2
2022-10-13T12:12:16.370Z,29.2
2022-10-13T12:13:18.862Z,29.2
2022-10-13T12:14:20.719Z,29.2
2022-10-13T12:15:22.526Z,29.2
2022-10-13T12:16:24.189Z,29.2
2022-10-13T12:17:27.087Z,29.2
2022-10-13T12:18:29.989Z,29.3
2022-10-13T12:19:31.804Z,29.3
2022-10-13T12:20:33.553Z,29.3
2022-10-13T12:21:35.502Z,29.2
2022-10-13T12:22:40.485Z,29.3
2022-10-13T12:23:42.136Z,29.3
2022-10-13T12:24:43.846Z,29.4
2022-10-13T12:25:45.420Z,29.4
2022-10-13T12:26:47.173Z,29.4
2022-10-13T12:27:48.802Z,29.4
2022-10-13T12:28:50.760Z,29.3
2022-10-13T12:29:53.074Z,29.4
2022-10-13T12:30:54.784Z,29.3
2022-10-13T12:31:56.541Z,29.3
2022-10-13T12:33:01.088Z,29.3
2022-10-13T12:34:02.851Z,29.3
2022-10-13T12:35:04.789Z,29.3
2022-10-13T12:36:06.750Z,29.3
2022-10-13T12:37:08.485Z,29.3
2022-10-13T12:38:10.260Z,29.4
2022-10-13T12:39:11.971Z,29.3
2022-10-13T12:40:13.623Z,29.3
2022-10-13T12:41:15.332Z,29.4
2022-10-13T12:42:17.092Z,29.3
2022-10-13T12:43:18.830Z,29.3
2022-10-13T12:44:20.491Z,29.3
2022-10-13T12:45:22.172Z,29.3
2022-10-13T12:46:23.729Z,29.3
2022-10-13T12:47:25.340Z,29.5
2022-10-13T12:48:26.898Z,29.5
2022-10-13T12:49:28.822Z,29.5
2022-10-13T12:50:30.888Z,29.5
2022-10-13T12:51:32.455Z,29.5
2022-10-13T12:52:34.048Z,29.5
2022-10-13T12:53:35.770Z,29.5
2022-10-13T12:54:37.378Z,29.5
2022-10-13T12:55:39.020Z,29.6
2022-10-13T12:56:40.728Z,29.5
2022-10-13T12:57:42.336Z,29.6
2022-10-13T12:58:43.959Z,29.3
2022-10-13T12:59:45.667Z,29.2
2022-10-13T13:00:47.379Z,29
2022-10-13T13:01:49.509Z,29
2022-10-13T13:02:51.348Z,29.1
2022-10-13T13:03:52.900Z,29.1
2022-10-13T13:04:54.662Z,29.2
2022-10-13T13:06:00.893Z,29
2022-10-13T13:07:02.750Z,29
2022-10-13T13:08:04.555Z,29
2022-10-13T13:09:06.308Z,28.9
2022-10-13T13:10:08.090Z,28.9
2022-10-13T13:11:09.808Z,28.9
2022-10-13T13:12:11.442Z,28.9
2022-10-13T13:13:13.062Z,28.9
2022-10-13T13:14:14.875Z,28.8
2022-10-13T13:15:16.444Z,28.8
2022-10-13T13:16:18.130Z,28.8
2022-10-13T13:17:58.574Z,28.8
2022-10-13T13:19:01.153Z,28.8
2022-10-13T13:20:02.966Z,28.8
2022-10-13T13:21:04.756Z,28.8
2022-10-13T13:22:06.537Z,28.8
2022-10-13T13:23:08.389Z,28.7
2022-10-13T13:24:35.768Z,28.7
2022-10-13T13:25:42.507Z,28.6
2022-10-13T13:26:44.252Z,28.6
2022-10-13T13:27:45.960Z,28.5
2022-10-13T13:28:47.755Z,28.5
2022-10-13T13:29:49.818Z,28.5
2022-10-13T13:30:51.552Z,28.5
2022-10-13T13:31:53.225Z,28.5
2022-10-13T13:32:54.907Z,28.5
2022-10-13T13:33:56.893Z,28.5
2022-10-13T13:34:58.504Z,28.4
2022-10-13T13:36:00.413Z,28.8
2022-10-13T13:37:02.147Z,28.5
2022-10-13T13:38:03.891Z,28.5
2022-10-13T13:39:05.656Z,28.4
2022-10-13T13:40:07.331Z,28.4
2022-10-13T13:41:09.023Z,28.4
2022-10-13T13:42:10.793Z,28.3
2022-10-13T13:43:12.485Z,28.3
2022-10-13T13:44:14.144Z,28.3
2022-10-13T13:45:15.779Z,28.2
2022-10-13T13:46:17.521Z,28.2
2022-10-13T13:47:19.908Z,28.2
2022-10-13T13:48:22.770Z,28.1
2022-10-13T13:49:24.438Z,28.1
2022-10-13T13:50:25.991Z,28.4
2022-10-13T13:51:27.675Z,28.4
2022-10-13T13:52:29.439Z,28
2022-10-13T13:53:31.221Z,28
2022-10-13T13:54:32.863Z,28.1